Ana Sayfa
METAR-TAF:

METAR-TAF

Havaalanları :

Denizli Çardak Havalimanı

Çardak, Türkiye

Enlem: 37-47N, Boylam: 029-42E, yükseklik: 849 m

Güncel hava durumu gözlemi

Rapor saat 21:50 UTC de 35 dakika önce yapıldı.
Rüzgar batıdan 8 kt
Sıcaklık 2°C
Nem 80%
Basınç 1019 hPa
Görüş mesafesi 10 km veya daha fazla
3500 ft yükseklikte az bulutlu
10000 ft yükseklikte parçalı bulutlu

METAR: LTAY 202150Z 27008KT 9999 FEW035 SCT100 02/M01 Q1019

Saat: 01:25 (22:25 UTC)

Tahmin

Rapor saat 19:40 UTC de 2 saat ve 45 dakika önce yapıldı.
Ayın 20'si saat 21 UTC'den ayın 21'si saat 06 UTC'ye kadar geçerli Tahmin
Rüzgar batıdan 12 kt
Görüş mesafesi 10 km veya daha fazla
3500 ft yükseklikte parçalı bulutlu
10000 ft yükseklikte parçalı çok bulutlu

TAF: LTAY 201940Z 2021/2106 28012KT 9999 SCT035 BKN100

4.000'den fazla havaalanı için hava durumu gözlemleri ve tahminleri (METAR ve TAF raporları).

Kullanılabilir istasyonlar harita üzerinde sarı ve kırmızı noktalarla gösterilir.

İstasyonun adını görmek için fareyi noktanın üzerinde gezdirin.

Sonrasında hava gözlem ve tahminlerini görmek için tıklayın.

Haritayı değiştirmek için: yaklaştırmak için siyah artı işaretli yeşil düğmeye ve uzaklaştırmak için de eksi işaretli düğmeye hızla tıklayın; bitişik haritalar için yeşil okları kullanın.


METAR-TAF: